createdAt,value
2023-01-07T00:00:14.674Z,936.22
2023-01-07T00:01:14.589Z,936.43
2023-01-07T00:02:14.583Z,936.39
2023-01-07T00:03:14.594Z,936.97
2023-01-07T00:04:14.570Z,936.92
2023-01-07T00:05:14.576Z,937.16
2023-01-07T00:06:14.583Z,937.47
2023-01-07T00:07:14.579Z,937.96
2023-01-07T00:08:14.575Z,938.34
2023-01-07T00:09:14.582Z,938.43
2023-01-07T00:10:14.580Z,938.68
2023-01-07T00:11:14.577Z,939.14
2023-01-07T00:12:14.577Z,939.18
2023-01-07T00:13:14.594Z,938.59
2023-01-07T00:14:14.599Z,938.51
2023-01-07T00:15:14.578Z,938.68
2023-01-07T00:16:15.723Z,938.4
2023-01-07T00:17:14.591Z,938.07
2023-01-07T00:18:14.610Z,937.74
2023-01-07T00:19:14.647Z,937.97
2023-01-07T00:20:14.591Z,938.07
2023-01-07T00:21:14.581Z,937.6
2023-01-07T00:22:14.604Z,937.58
2023-01-07T00:23:14.587Z,937.59
2023-01-07T00:24:15.519Z,937.44
2023-01-07T00:25:14.594Z,936.99
2023-01-07T00:26:14.597Z,937.34
2023-01-07T00:27:14.601Z,937.34
2023-01-07T00:28:14.593Z,937.42
2023-01-07T00:29:14.629Z,937.24
2023-01-07T00:30:14.600Z,937.12
2023-01-07T00:31:14.647Z,936.83
2023-01-07T00:32:14.651Z,936.36
2023-01-07T00:33:14.614Z,936.48
2023-01-07T00:34:14.683Z,936.35
2023-01-07T00:35:14.635Z,936.1
2023-01-07T00:36:14.609Z,936.14
2023-01-07T00:37:14.613Z,935.73
2023-01-07T00:38:14.631Z,935.08
2023-01-07T00:39:14.667Z,935.26
2023-01-07T00:40:14.633Z,934.9
2023-01-07T00:41:14.650Z,935.19
2023-01-07T00:42:14.706Z,935.03
2023-01-07T00:43:14.624Z,934.99
2023-01-07T00:44:14.659Z,934.78
2023-01-07T00:45:14.634Z,934.82
2023-01-07T00:46:14.687Z,934.34
2023-01-07T00:47:14.622Z,934.33
2023-01-07T00:48:14.643Z,934.36
2023-01-07T00:49:14.663Z,934.06
2023-01-07T00:50:14.760Z,933.25
2023-01-07T00:51:14.660Z,933.27
2023-01-07T00:52:14.633Z,932.43
2023-01-07T00:53:17.404Z,931.89
2023-01-07T00:54:14.668Z,931.5
2023-01-07T00:55:14.644Z,930.43
2023-01-07T00:56:14.728Z,929.78
2023-01-07T00:57:14.655Z,929.6
2023-01-07T00:58:14.661Z,929.02
2023-01-07T00:59:14.663Z,929.07
2023-01-07T01:00:14.684Z,928.58
2023-01-07T01:01:14.814Z,927.82
2023-01-07T01:02:14.724Z,926.93
2023-01-07T01:03:14.654Z,926.65
2023-01-07T01:04:15.940Z,925.94
2023-01-07T01:05:14.652Z,925.71
2023-01-07T01:06:14.796Z,925.25
2023-01-07T01:07:14.660Z,924.88
2023-01-07T01:08:14.656Z,924.73
2023-01-07T01:09:14.665Z,924.66
2023-01-07T01:10:14.706Z,924.4
2023-01-07T01:11:14.694Z,923.96
2023-01-07T01:12:14.685Z,923.19
2023-01-07T01:13:18.013Z,923.01
2023-01-07T01:14:14.668Z,922.37
2023-01-07T01:15:17.782Z,922.16
2023-01-07T01:16:14.740Z,921.76
2023-01-07T01:17:14.689Z,921.52
2023-01-07T01:18:14.678Z,921.28
2023-01-07T01:19:14.674Z,921.58
2023-01-07T01:20:14.686Z,921.46
2023-01-07T01:21:14.676Z,921.74
2023-01-07T01:22:14.800Z,921.8
2023-01-07T01:23:14.683Z,921.87
2023-01-07T01:24:14.689Z,921.84
2023-01-07T01:25:14.688Z,922.38
2023-01-07T01:26:17.729Z,922.01
2023-01-07T01:27:14.688Z,922.79
2023-01-07T01:28:14.694Z,922.42
2023-01-07T01:29:14.689Z,922.51
2023-01-07T01:30:14.692Z,922.76
2023-01-07T01:31:14.729Z,922.77
2023-01-07T01:32:14.710Z,922.66
2023-01-07T01:33:14.694Z,922.95
2023-01-07T01:34:14.698Z,922.55
2023-01-07T01:35:14.703Z,922.66
2023-01-07T01:36:14.712Z,922.03
2023-01-07T01:37:14.702Z,921.88
2023-01-07T01:38:14.818Z,922
2023-01-07T01:39:14.729Z,921.65
2023-01-07T01:40:14.717Z,921.8
2023-01-07T01:41:14.715Z,921.53
2023-01-07T01:42:14.714Z,921.75
2023-01-07T01:43:14.713Z,921.49
2023-01-07T01:44:14.714Z,921.55
2023-01-07T01:45:14.715Z,921.63
2023-01-07T01:46:14.784Z,921.27
2023-01-07T01:47:14.723Z,920.94
2023-01-07T01:48:14.731Z,920.5
2023-01-07T01:49:14.724Z,920.86
2023-01-07T01:50:14.728Z,921.13
2023-01-07T01:51:14.734Z,921.34
2023-01-07T01:52:14.747Z,921.34
2023-01-07T01:53:14.728Z,921.42
2023-01-07T01:54:14.860Z,921.41
2023-01-07T01:55:14.753Z,921.14
2023-01-07T01:56:14.739Z,920.44
2023-01-07T01:57:14.738Z,919.82
2023-01-07T01:58:14.754Z,919.14
2023-01-07T01:59:14.774Z,918.7
2023-01-07T02:00:14.737Z,918.24
2023-01-07T02:01:14.948Z,917.77
2023-01-07T02:02:14.841Z,916.77
2023-01-07T02:03:14.760Z,916.66
2023-01-07T02:04:14.744Z,916.19
2023-01-07T02:05:14.763Z,916.08
2023-01-07T02:06:14.759Z,916.05
2023-01-07T02:07:14.753Z,916.09
2023-01-07T02:08:14.754Z,916.38
2023-01-07T02:09:17.541Z,916.72
2023-01-07T02:10:14.889Z,916.55
2023-01-07T02:11:14.754Z,916.7
2023-01-07T02:12:14.767Z,916.85
2023-01-07T02:13:14.761Z,917.32
2023-01-07T02:14:14.767Z,916.68
2023-01-07T02:15:14.762Z,916.27
2023-01-07T02:16:14.802Z,916.54
2023-01-07T02:17:14.779Z,916.7
2023-01-07T02:18:14.774Z,916.41
2023-01-07T02:19:14.776Z,916.42
2023-01-07T02:20:14.767Z,916.39
2023-01-07T02:21:14.770Z,915.75
2023-01-07T02:22:14.774Z,915.74
2023-01-07T02:23:14.792Z,915.41
2023-01-07T02:24:14.782Z,915.45
2023-01-07T02:25:14.785Z,914.74
2023-01-07T02:26:14.895Z,914.84
2023-01-07T02:27:14.783Z,915.03
2023-01-07T02:28:14.788Z,915.04
2023-01-07T02:29:14.785Z,915.26
2023-01-07T02:30:14.791Z,915.51
2023-01-07T02:31:14.850Z,915.58
2023-01-07T02:32:14.790Z,915.74
2023-01-07T02:33:14.794Z,916.15
2023-01-07T02:34:14.814Z,915.89
2023-01-07T02:35:14.800Z,916.86
2023-01-07T02:36:14.792Z,916.7
2023-01-07T02:37:14.801Z,916.83
2023-01-07T02:38:14.810Z,917.12
2023-01-07T02:39:14.798Z,917.11
2023-01-07T02:40:14.817Z,916.47
2023-01-07T02:41:14.812Z,916.37
2023-01-07T02:42:14.925Z,915.66
2023-01-07T02:43:14.812Z,915.36
2023-01-07T02:44:14.811Z,915.24
2023-01-07T02:45:14.812Z,915.1
2023-01-07T02:46:14.839Z,914.59
2023-01-07T02:47:14.820Z,914.76
2023-01-07T02:48:14.823Z,914.42
2023-01-07T02:49:14.819Z,913.83
2023-01-07T02:50:14.825Z,914.13
2023-01-07T02:51:14.825Z,913.97
2023-01-07T02:52:14.825Z,914.08
2023-01-07T02:53:14.831Z,914.09
2023-01-07T02:54:14.849Z,914.04
2023-01-07T02:55:14.840Z,914.02
2023-01-07T02:56:14.837Z,914.29
2023-01-07T02:57:14.833Z,914.03
2023-01-07T02:58:14.961Z,914.5
2023-01-07T02:59:14.845Z,914.03
2023-01-07T03:00:14.839Z,913.93
2023-01-07T03:01:15.143Z,913.95
2023-01-07T03:02:14.837Z,914.08
2023-01-07T03:03:14.846Z,913.72
2023-01-07T03:04:14.949Z,913.45
2023-01-07T03:05:14.846Z,913.31
2023-01-07T03:06:14.842Z,912.79
2023-01-07T03:07:14.851Z,913.13
2023-01-07T03:08:14.846Z,912.64
2023-01-07T03:09:14.859Z,913.06
2023-01-07T03:10:14.854Z,912.92
2023-01-07T03:11:14.861Z,913.04
2023-01-07T03:12:14.878Z,912.86
2023-01-07T03:13:14.878Z,912.87
2023-01-07T03:14:14.978Z,912.4
2023-01-07T03:15:14.862Z,912.41
2023-01-07T03:16:14.865Z,912.5
2023-01-07T03:17:14.866Z,912.52
2023-01-07T03:18:14.865Z,912.81
2023-01-07T03:19:14.864Z,911.89
2023-01-07T03:20:16.046Z,912.24
2023-01-07T03:21:14.903Z,911.97
2023-01-07T03:22:14.876Z,912
2023-01-07T03:23:14.877Z,912.23
2023-01-07T03:24:14.885Z,912.04
2023-01-07T03:25:14.881Z,912.08
2023-01-07T03:26:14.898Z,911.99
2023-01-07T03:27:14.885Z,912.11
2023-01-07T03:28:14.881Z,912.2
2023-01-07T03:29:14.903Z,912.22
2023-01-07T03:30:15.018Z,911.69
2023-01-07T03:31:17.935Z,912.09
2023-01-07T03:32:14.894Z,912.1
2023-01-07T03:33:14.890Z,911.47
2023-01-07T03:34:14.887Z,911.79
2023-01-07T03:35:14.892Z,911.55
2023-01-07T03:36:14.895Z,911.44
2023-01-07T03:37:14.895Z,911.16
2023-01-07T03:38:14.901Z,910.78
2023-01-07T03:39:14.924Z,911.31
2023-01-07T03:40:14.915Z,910.62
2023-01-07T03:41:14.921Z,911.15
2023-01-07T03:42:17.681Z,910.4
2023-01-07T03:43:14.908Z,910.75
2023-01-07T03:44:14.907Z,909.68
2023-01-07T03:45:14.911Z,909.39
2023-01-07T03:46:15.073Z,909.82
2023-01-07T03:47:14.918Z,909.97
2023-01-07T03:48:14.906Z,909.76
2023-01-07T03:49:14.919Z,909.86
2023-01-07T03:50:14.915Z,909.75
2023-01-07T03:51:14.923Z,909.66
2023-01-07T03:52:14.921Z,909.62
2023-01-07T03:53:17.989Z,909.35
2023-01-07T03:54:14.932Z,908.81
2023-01-07T03:55:14.922Z,909.07
2023-01-07T03:56:14.919Z,909.09
2023-01-07T03:57:14.936Z,908.69
2023-01-07T03:58:14.923Z,908.55
2023-01-07T03:59:14.942Z,908.55
2023-01-07T04:00:14.938Z,908.01
2023-01-07T04:01:15.091Z,907.85
2023-01-07T04:02:15.167Z,908.1
2023-01-07T04:03:14.947Z,907.69
2023-01-07T04:04:14.981Z,907.87
2023-01-07T04:05:14.941Z,907.4
2023-01-07T04:06:14.943Z,907.68
2023-01-07T04:07:14.948Z,907.74
2023-01-07T04:08:14.952Z,907.57
2023-01-07T04:09:14.951Z,907.6
2023-01-07T04:10:14.943Z,908.13
2023-01-07T04:11:14.949Z,907.86
2023-01-07T04:12:14.948Z,907.83
2023-01-07T04:13:14.955Z,908.04
2023-01-07T04:14:14.955Z,908.05
2023-01-07T04:15:14.972Z,908.19
2023-01-07T04:16:15.037Z,908.17
2023-01-07T04:17:14.953Z,908.25
2023-01-07T04:18:15.071Z,908.51
2023-01-07T04:19:14.965Z,908.73
2023-01-07T04:20:14.957Z,908.7
2023-01-07T04:21:14.965Z,908.33
2023-01-07T04:22:14.979Z,909.19
2023-01-07T04:23:14.988Z,909.05
2023-01-07T04:24:14.967Z,908.86
2023-01-07T04:25:14.974Z,908.99
2023-01-07T04:26:14.966Z,908.79
2023-01-07T04:27:14.981Z,908.52
2023-01-07T04:28:14.978Z,907.87
2023-01-07T04:29:14.985Z,907.38
2023-01-07T04:31:27.339Z,906.23
2023-01-07T04:32:27.336Z,905.88
2023-01-07T04:40:27.433Z,905.28
2023-01-07T04:41:27.343Z,904.84
2023-01-07T04:42:27.301Z,904.9
2023-01-07T04:43:27.315Z,904.75
2023-01-07T04:44:27.349Z,904.95
2023-01-07T04:45:27.330Z,904.98
2023-01-07T04:46:27.337Z,904.71
2023-01-07T04:47:27.311Z,904.96
2023-01-07T04:48:30.206Z,905.34
2023-01-07T04:49:27.313Z,905.16
2023-01-07T04:50:27.363Z,905.16
2023-01-07T04:51:27.335Z,905.26
2023-01-07T04:52:27.321Z,905.56
2023-01-07T04:53:27.328Z,905.31
2023-01-07T04:54:27.319Z,905.06
2023-01-07T04:55:27.362Z,904.63
2023-01-07T04:56:27.434Z,904.38
2023-01-07T04:57:27.339Z,904.28
2023-01-07T04:58:27.334Z,903.31
2023-01-07T04:59:27.430Z,903.28
2023-01-07T05:00:27.367Z,902.76
2023-01-07T05:01:27.490Z,902.21
2023-01-07T05:02:27.341Z,902.33
2023-01-07T05:03:27.352Z,902.43
2023-01-07T05:04:27.441Z,901.87
2023-01-07T05:05:27.354Z,901.37
2023-01-07T05:06:27.354Z,901.17
2023-01-07T05:07:27.343Z,901.03
2023-01-07T05:08:27.363Z,901.05
2023-01-07T05:09:27.352Z,900.6
2023-01-07T05:10:27.373Z,900.34
2023-01-07T05:11:27.345Z,900.35
2023-01-07T05:12:27.470Z,900.33
2023-01-07T05:13:27.355Z,900.64
2023-01-07T05:14:27.396Z,900.7
2023-01-07T05:15:27.371Z,901.17
2023-01-07T05:16:27.411Z,901.44
2023-01-07T05:17:27.362Z,900.78
2023-01-07T05:18:27.359Z,900.87
2023-01-07T05:19:27.402Z,901.03
2023-01-07T05:20:27.388Z,901.37
2023-01-07T05:21:27.366Z,901.47
2023-01-07T05:22:27.381Z,901.68
2023-01-07T05:23:27.382Z,901.56
2023-01-07T05:24:27.393Z,901.69
2023-01-07T05:25:27.448Z,901.66
2023-01-07T05:26:27.373Z,902.53
2023-01-07T05:27:27.374Z,902.31
2023-01-07T05:28:27.494Z,902.41
2023-01-07T05:29:27.377Z,902.72
2023-01-07T05:30:30.412Z,902.79
2023-01-07T05:31:27.380Z,902.82
2023-01-07T05:32:27.411Z,902.69
2023-01-07T05:33:27.402Z,902.95
2023-01-07T05:34:27.435Z,902.83
2023-01-07T05:35:28.157Z,902.47
2023-01-07T05:36:27.420Z,902.45
2023-01-07T05:37:27.408Z,902.2
2023-01-07T05:38:27.427Z,902.11
2023-01-07T05:39:27.463Z,902.09
2023-01-07T05:52:41.055Z,903.37
2023-01-07T05:53:43.036Z,903.29
2023-01-07T05:54:40.882Z,903.05
2023-01-07T05:55:40.868Z,903.21
2023-01-07T05:58:11.394Z,903.38
2023-01-07T06:00:53.376Z,902.8
2023-01-07T06:01:53.276Z,902.31
2023-01-07T06:02:53.283Z,902.29
2023-01-07T06:03:53.338Z,902.31
2023-01-07T06:04:53.336Z,902.38
2023-01-07T06:05:53.277Z,902.18
2023-01-07T06:06:56.350Z,901.92
2023-01-07T06:07:53.398Z,902.33
2023-01-07T06:08:53.306Z,902.52
2023-01-07T06:09:53.281Z,902.41
2023-01-07T06:10:53.288Z,902.38
2023-01-07T06:11:53.286Z,902.64
2023-01-07T06:12:53.288Z,902.83
2023-01-07T06:13:53.352Z,903.13
2023-01-07T06:14:53.286Z,903.16
2023-01-07T06:15:53.335Z,903.38
2023-01-07T06:16:53.298Z,903.88
2023-01-07T06:17:56.377Z,904.03
2023-01-07T06:18:53.356Z,904.27
2023-01-07T06:19:53.297Z,904.26
2023-01-07T06:20:53.294Z,904.3
2023-01-07T06:21:53.317Z,904.29
2023-01-07T06:22:53.320Z,904.52
2023-01-07T06:23:53.442Z,904.24
2023-01-07T06:24:53.306Z,904.99
2023-01-07T06:25:53.306Z,904.68
2023-01-07T06:26:53.312Z,904.95
2023-01-07T06:27:53.304Z,904.78
2023-01-07T06:28:55.152Z,905.38
2023-01-07T06:29:55.775Z,905.11
2023-01-07T06:30:53.337Z,905.38
2023-01-07T06:31:53.321Z,905.53
2023-01-07T06:32:53.351Z,905.09
2023-01-07T06:34:53.312Z,905.67
2023-01-07T06:35:53.350Z,905.3
2023-01-07T06:36:53.350Z,905.8
2023-01-07T06:37:53.338Z,905.43
2023-01-07T06:38:53.366Z,905.84
2023-01-07T06:39:57.303Z,905.45
2023-01-07T06:40:53.324Z,905.58
2023-01-07T06:41:53.328Z,905.99
2023-01-07T06:42:53.328Z,905.81
2023-01-07T06:43:53.328Z,905.8
2023-01-07T06:44:53.335Z,905.9
2023-01-07T06:45:53.336Z,906.06
2023-01-07T06:46:53.338Z,906.11
2023-01-07T06:47:53.341Z,905.76
2023-01-07T06:48:53.341Z,905.61
2023-01-07T06:49:53.345Z,905.51
2023-01-07T06:50:56.216Z,905.3
2023-01-07T06:51:53.350Z,905.34
2023-01-07T06:52:53.342Z,905.24
2023-01-07T06:53:53.349Z,905.55
2023-01-07T06:54:53.352Z,905.41
2023-01-07T06:55:53.510Z,906.06
2023-01-07T06:56:53.354Z,905.45
2023-01-07T06:57:53.364Z,906.03
2023-01-07T06:58:53.358Z,905.91
2023-01-07T06:59:53.355Z,906.14
2023-01-07T07:00:53.384Z,906.27
2023-01-07T07:01:53.490Z,905.62
2023-01-07T07:02:53.461Z,906.39
2023-01-07T07:03:53.378Z,905.38
2023-01-07T07:04:53.388Z,906.11
2023-01-07T07:05:53.401Z,905.85
2023-01-07T07:06:53.375Z,905.61
2023-01-07T07:07:53.371Z,905.5
2023-01-07T07:08:53.376Z,905.38
2023-01-07T07:09:53.373Z,905.32
2023-01-07T07:10:53.393Z,905.44
2023-01-07T07:11:53.533Z,905.33
2023-01-07T07:12:53.389Z,905.35
2023-01-07T07:13:59.375Z,905.03
2023-01-07T07:14:55.605Z,905.11
2023-01-07T07:15:55.709Z,904.93
2023-01-07T07:21:53.395Z,904.72
2023-01-07T07:22:53.389Z,905.12
2023-01-07T07:23:53.391Z,905.67
2023-01-07T07:24:53.403Z,905.36
2023-01-07T07:25:53.404Z,905.3
2023-01-07T07:26:53.402Z,905.11
2023-01-07T07:27:53.522Z,904.9
2023-01-07T07:28:53.409Z,905.35
2023-01-07T07:29:53.410Z,904.89
2023-01-07T07:33:04.017Z,905.03
2023-01-07T07:34:56.261Z,905.32
2023-01-07T07:35:53.414Z,905.84
2023-01-07T07:36:54.193Z,905.57
2023-01-07T07:37:53.441Z,905.65
2023-01-07T07:38:53.438Z,905.88
2023-01-07T07:39:53.441Z,905.93
2023-01-07T07:40:53.422Z,906.17
2023-01-07T07:41:53.421Z,905.91
2023-01-07T07:43:09.937Z,906.66
2023-01-07T07:43:53.556Z,905.86
2023-01-07T07:44:53.436Z,905.99
2023-01-07T07:45:53.425Z,906.03
2023-01-07T07:46:53.470Z,905.81
2023-01-07T07:47:53.441Z,906.1
2023-01-07T07:48:53.441Z,905.76
2023-01-07T07:49:53.432Z,905.71
2023-01-07T07:50:53.449Z,906.61
2023-01-07T07:51:53.432Z,906.56
2023-01-07T07:52:53.442Z,906.92
2023-01-07T07:53:53.446Z,907.5
2023-01-07T07:54:53.437Z,907.39
2023-01-07T07:56:00.814Z,907.55
2023-01-07T07:57:53.463Z,907.19
2023-01-07T07:58:53.467Z,907.66
2023-01-07T07:59:56.320Z,908.15
2023-01-07T08:00:53.508Z,908.16
2023-01-07T08:01:53.564Z,908.71
2023-01-07T08:02:53.456Z,908.99
2023-01-07T08:03:53.458Z,909.1
2023-01-07T08:04:53.470Z,910.06
2023-01-07T08:05:53.491Z,910.38
2023-01-07T08:06:53.471Z,910.75
2023-01-07T08:07:56.244Z,911.01
2023-01-07T08:08:53.468Z,911.42
2023-01-07T08:09:53.497Z,911.64
2023-01-07T08:10:53.508Z,911.97
2023-01-07T08:15:56.661Z,913.34
2023-01-07T08:16:53.498Z,913.99
2023-01-07T08:17:53.481Z,913.69
2023-01-07T08:18:56.019Z,914.17
2023-01-07T08:19:53.508Z,914.42
2023-01-07T08:20:53.556Z,914.39
2023-01-07T08:22:53.652Z,914.69
2023-01-07T08:23:54.535Z,915.54
2023-01-07T08:24:53.557Z,914.92
2023-01-07T08:25:53.914Z,915.93
2023-01-07T08:26:56.731Z,916
2023-01-07T08:27:53.806Z,915.94
2023-01-07T08:28:54.015Z,916.05
2023-01-07T08:29:53.950Z,916.26
2023-01-07T08:30:53.866Z,916.38
2023-01-07T08:31:53.864Z,916.52
2023-01-07T08:33:02.368Z,916.91
2023-01-07T08:33:56.520Z,916.5
2023-01-07T08:34:53.521Z,917.24
2023-01-07T08:35:53.535Z,917.44
2023-01-07T08:39:53.544Z,918.78
2023-01-07T08:40:53.536Z,919.27
2023-01-07T08:41:53.511Z,919.22
2023-01-07T08:42:53.525Z,919.4
2023-01-07T08:43:53.557Z,919.8
2023-01-07T08:44:56.605Z,919.83
2023-01-07T08:45:53.555Z,919.93
2023-01-07T08:46:53.619Z,920.35
2023-01-07T08:47:53.648Z,920.72
2023-01-07T08:48:53.533Z,921.31
2023-01-07T08:49:53.524Z,921.29
2023-01-07T08:50:53.564Z,921.65
2023-01-07T08:51:53.537Z,922.11
2023-01-07T08:52:53.536Z,922.74
2023-01-07T08:53:53.529Z,922.8
2023-01-07T08:54:53.540Z,923.16
2023-01-07T08:55:55.207Z,923.5
2023-01-07T08:56:53.550Z,924.37
2023-01-07T08:57:53.532Z,924.32
2023-01-07T08:58:53.548Z,924.67
2023-01-07T08:59:53.546Z,925.23
2023-01-07T09:00:53.720Z,925.61
2023-01-07T09:01:53.744Z,925.85
2023-01-07T09:02:53.603Z,926.46
2023-01-07T09:03:53.668Z,926.74
2023-01-07T09:04:53.553Z,927.44
2023-01-07T09:05:56.291Z,927.91
2023-01-07T09:08:53.595Z,928.81
2023-01-07T09:10:53.561Z,929.57
2023-01-07T09:11:53.584Z,930.11
2023-01-07T09:12:56.348Z,930.56
2023-01-07T09:14:53.588Z,931.08
2023-01-07T09:15:53.581Z,931.69
2023-01-07T09:16:53.570Z,931.92
2023-01-07T09:17:56.319Z,932.37
2023-01-07T09:18:53.571Z,932.63
2023-01-07T09:19:53.685Z,933.21
2023-01-07T09:20:53.577Z,933.42
2023-01-07T09:21:53.599Z,934.23
2023-01-07T09:22:53.591Z,934.54
2023-01-07T09:23:53.589Z,934.66
2023-01-07T09:24:53.576Z,935.36
2023-01-07T09:25:53.580Z,935.83
2023-01-07T09:26:53.585Z,935.94
2023-01-07T09:27:53.614Z,936.37
2023-01-07T09:28:53.619Z,936.36
2023-01-07T09:29:53.592Z,937.66
2023-01-07T09:30:55.344Z,937.73
2023-01-07T09:31:53.663Z,937.72
2023-01-07T09:32:53.594Z,937.94
2023-01-07T09:33:53.601Z,938.25
2023-01-07T09:34:53.595Z,938.29
2023-01-07T09:35:53.723Z,938.12
2023-01-07T09:36:53.606Z,938.83
2023-01-07T09:37:53.623Z,939.16
2023-01-07T09:38:53.612Z,938.38
2023-01-07T09:39:53.598Z,938.22
2023-01-07T09:40:53.614Z,938.11
2023-01-07T09:41:53.612Z,937.7
2023-01-07T09:42:53.604Z,938.27
2023-01-07T09:43:59.141Z,937.93
2023-01-07T09:44:53.616Z,938.03
2023-01-07T09:45:53.769Z,937.72
2023-01-07T09:46:53.628Z,937.86
2023-01-07T09:47:53.625Z,937.74
2023-01-07T09:48:53.615Z,938.11
2023-01-07T09:49:53.626Z,938.28
2023-01-07T09:50:53.626Z,938.32
2023-01-07T09:51:53.742Z,938.68
2023-01-07T09:52:53.621Z,938.92
2023-01-07T09:53:53.637Z,938.94
2023-01-07T09:54:53.626Z,938.57
2023-01-07T09:56:10.409Z,938.86
2023-01-07T09:56:53.634Z,938.82
2023-01-07T09:57:53.638Z,938.73
2023-01-07T09:58:53.630Z,939.24
2023-01-07T09:59:53.638Z,939.41
2023-01-07T10:00:53.668Z,939.47
2023-01-07T10:01:53.668Z,939.61
2023-01-07T10:02:53.651Z,940.15
2023-01-07T10:03:53.695Z,940.6
2023-01-07T10:04:53.643Z,940.5
2023-01-07T10:05:53.647Z,940.63
2023-01-07T10:06:53.696Z,941.22
2023-01-07T10:07:53.771Z,941.25
2023-01-07T10:08:53.654Z,941.41
2023-01-07T10:09:53.656Z,941.35
2023-01-07T10:10:53.656Z,941.88
2023-01-07T10:11:53.677Z,941.93
2023-01-07T10:12:53.669Z,942.51
2023-01-07T10:13:53.665Z,942.21
2023-01-07T10:14:53.662Z,942.65
2023-01-07T10:15:53.666Z,942.84
2023-01-07T10:16:53.691Z,942.83
2023-01-07T10:17:53.675Z,943.5
2023-01-07T10:18:53.667Z,943.74
2023-01-07T10:19:53.666Z,944.01
2023-01-07T10:20:53.677Z,944.63
2023-01-07T10:21:53.692Z,944.15
2023-01-07T10:22:53.673Z,944.51
2023-01-07T10:23:53.808Z,944.57
2023-01-07T10:24:53.672Z,944.9
2023-01-07T10:25:53.675Z,944.95
2023-01-07T10:26:53.702Z,945.28
2023-01-07T10:27:53.682Z,945.34
2023-01-07T10:28:53.686Z,945.76
2023-01-07T10:29:53.685Z,946.07
2023-01-07T10:30:53.690Z,946
2023-01-07T10:31:53.747Z,946.41
2023-01-07T10:32:53.693Z,946.67
2023-01-07T10:33:53.690Z,947
2023-01-07T10:34:53.703Z,947.27
2023-01-07T10:35:54.775Z,947.57
2023-01-07T10:36:53.729Z,947.9
2023-01-07T10:37:53.693Z,948.17
2023-01-07T10:38:53.693Z,948.37
2023-01-07T10:39:53.816Z,948.55
2023-01-07T10:40:53.708Z,949.36
2023-01-07T10:41:53.725Z,949.24
2023-01-07T10:42:53.712Z,949.58
2023-01-07T10:43:53.701Z,950.37
2023-01-07T10:44:53.711Z,950.55
2023-01-07T10:45:53.747Z,951.29
2023-01-07T10:46:53.732Z,951.66
2023-01-07T10:47:53.710Z,952.17
2023-01-07T10:48:53.711Z,952.83
2023-01-07T10:49:53.717Z,953.5
2023-01-07T10:50:53.718Z,954.04
2023-01-07T10:51:53.741Z,955
2023-01-07T10:52:53.728Z,955.19
2023-01-07T10:53:53.725Z,956.13
2023-01-07T10:54:53.718Z,956.62
2023-01-07T10:55:53.852Z,957.06
2023-01-07T10:56:53.762Z,957.69
2023-01-07T10:57:53.731Z,958.69
2023-01-07T10:58:53.726Z,959.59
2023-01-07T10:59:53.733Z,960.14
2023-01-07T11:00:56.970Z,961.2
2023-01-07T11:01:53.936Z,961.59
2023-01-07T11:02:53.799Z,962.6
2023-01-07T11:03:53.732Z,963.88
2023-01-07T11:04:53.740Z,965.42
2023-01-07T11:05:53.744Z,967.27
2023-01-07T11:06:53.806Z,969.62
2023-01-07T11:07:53.748Z,972.28
2023-01-07T11:08:53.770Z,974.34
2023-01-07T11:09:53.768Z,976.15
2023-01-07T11:10:53.749Z,977.12
2023-01-07T11:11:55.396Z,977.71
2023-01-07T11:12:53.752Z,977.89
2023-01-07T11:13:53.754Z,978.4
2023-01-07T11:14:53.755Z,978.3
2023-01-07T11:15:53.758Z,978.35
2023-01-07T11:16:53.844Z,978.65
2023-01-07T11:17:53.767Z,979.18
2023-01-07T11:18:53.771Z,979.56
2023-01-07T11:19:53.762Z,979.76
2023-01-07T11:20:53.767Z,980.44
2023-01-07T11:21:53.766Z,980.62
2023-01-07T11:22:56.546Z,981.17
2023-01-07T11:23:53.774Z,982.09
2023-01-07T11:24:53.775Z,982.66
2023-01-07T11:25:53.777Z,982.72
2023-01-07T11:26:53.770Z,983.22
2023-01-07T11:27:53.922Z,983.12
2023-01-07T11:28:53.783Z,983.47
2023-01-07T11:29:53.783Z,983.38
2023-01-07T11:30:53.777Z,983.32
2023-01-07T11:31:53.954Z,983.19
2023-01-07T11:32:53.791Z,983.01
2023-01-07T11:34:00.966Z,983.33
2023-01-07T11:34:53.797Z,983.78
2023-01-07T11:35:53.794Z,983.87
2023-01-07T11:36:53.796Z,984.42
2023-01-07T11:37:53.795Z,984.31
2023-01-07T11:38:53.801Z,984.2
2023-01-07T11:39:53.799Z,984.19
2023-01-07T11:40:53.800Z,984.31
2023-01-07T11:41:53.822Z,984
2023-01-07T11:42:53.820Z,983.25
2023-01-07T11:43:53.922Z,983.04
2023-01-07T11:44:53.800Z,982.74
2023-01-07T11:46:18.818Z,982.87
2023-01-07T11:46:53.923Z,982.41
2023-01-07T11:47:53.808Z,981.95
2023-01-07T11:48:53.810Z,982.17
2023-01-07T11:49:53.813Z,982.13
2023-01-07T11:50:53.811Z,981.82
2023-01-07T11:51:53.812Z,981.45
2023-01-07T11:52:53.817Z,981.74
2023-01-07T11:53:53.817Z,981.48
2023-01-07T11:54:53.856Z,980.69
2023-01-07T11:55:53.831Z,980.48
2023-01-07T11:56:55.032Z,980.08
2023-01-07T11:57:55.278Z,979.99
2023-01-07T11:58:53.839Z,979.64
2023-01-07T11:59:53.955Z,979.57
2023-01-07T12:00:53.846Z,980.25
2023-01-07T12:01:53.917Z,980.82
2023-01-07T12:02:53.845Z,981.18
2023-01-07T12:03:53.917Z,981.49
2023-01-07T12:04:53.841Z,982.05
2023-01-07T12:05:53.847Z,982.73
2023-01-07T12:06:53.850Z,982.99
2023-01-07T12:07:53.839Z,982.93
2023-01-07T12:08:53.865Z,983.26
2023-01-07T12:09:53.843Z,983.71
2023-01-07T12:10:53.850Z,983.97
2023-01-07T12:11:53.852Z,984.53
2023-01-07T12:12:54.668Z,985.25
2023-01-07T12:13:53.868Z,985.87
2023-01-07T12:14:53.855Z,986.85
2023-01-07T12:15:53.995Z,987.46
2023-01-07T12:16:53.916Z,988.32
2023-01-07T12:17:53.886Z,989.19
2023-01-07T12:18:53.860Z,990.71
2023-01-07T12:19:53.866Z,991.25
2023-01-07T12:20:53.866Z,992.3
2023-01-07T12:21:53.867Z,992.32
2023-01-07T12:22:58.635Z,993.04
2023-01-07T12:23:53.863Z,993.66
2023-01-07T12:24:53.872Z,994.5
2023-01-07T12:25:53.866Z,994.8
2023-01-07T12:26:53.886Z,994.77
2023-01-07T12:27:53.904Z,994.9
2023-01-07T12:28:53.886Z,994.91
2023-01-07T12:29:53.872Z,995.19
2023-01-07T12:30:53.893Z,995.46
2023-01-07T12:31:54.013Z,995.54
2023-01-07T12:32:53.913Z,996.29
2023-01-07T12:33:53.893Z,996.5
2023-01-07T12:34:53.964Z,996.75
2023-01-07T12:35:53.883Z,997.67
2023-01-07T12:36:53.886Z,998.16
2023-01-07T12:37:53.917Z,998.99
2023-01-07T12:38:53.906Z,999.57
2023-01-07T12:39:55.984Z,1000.34
2023-01-07T12:40:53.904Z,1000.99
2023-01-07T12:41:53.896Z,1001.85
2023-01-07T12:42:53.934Z,1002.01
2023-01-07T12:43:55.102Z,1002.08
2023-01-07T12:44:53.904Z,1001.78
2023-01-07T12:45:53.960Z,1002.09
2023-01-07T12:46:53.912Z,1001.51
2023-01-07T12:47:54.065Z,1001.7
2023-01-07T12:48:53.907Z,1001.55
2023-01-07T12:49:53.911Z,1001.02
2023-01-07T12:50:53.919Z,1000.53
2023-01-07T12:51:53.916Z,999.89
2023-01-07T12:52:53.944Z,999.76
2023-01-07T12:53:53.924Z,999.29
2023-01-07T12:54:53.922Z,999.04
2023-01-07T12:55:53.943Z,998.87
2023-01-07T12:56:53.919Z,998.81
2023-01-07T12:57:53.943Z,998.54
2023-01-07T12:58:53.933Z,998.24
2023-01-07T12:59:53.930Z,998.24
2023-01-07T13:00:53.931Z,998.2
2023-01-07T13:01:54.074Z,998.95
2023-01-07T13:02:53.953Z,998.98
2023-01-07T13:03:53.951Z,999.25
2023-01-07T13:04:53.975Z,1000.26
2023-01-07T13:05:53.938Z,1000.72
2023-01-07T13:06:53.941Z,1001.72
2023-01-07T13:07:53.969Z,1002.55
2023-01-07T13:08:53.938Z,1003.1
2023-01-07T13:09:53.948Z,1003.34
2023-01-07T13:10:53.948Z,1003.32
2023-01-07T13:11:53.964Z,1003.55
2023-01-07T13:12:53.981Z,1003.22
2023-01-07T13:13:53.950Z,1002.61
2023-01-07T13:14:53.954Z,1002.33
2023-01-07T13:15:54.019Z,1001.49